createdAt,value
2023-02-06T00:00:55.068Z,91.4
2023-02-06T00:05:07.464Z,121.7
2023-02-06T00:07:16.623Z,116
2023-02-06T00:09:22.821Z,145
2023-02-06T00:11:29.009Z,113
2023-02-06T00:13:35.239Z,79.6
2023-02-06T00:15:41.423Z,96.6
2023-02-06T00:17:47.639Z,112
2023-02-06T00:19:53.850Z,88.9
2023-02-06T00:22:02.940Z,92.5
2023-02-06T00:24:10.736Z,102.4
2023-02-06T00:26:16.864Z,109.1
2023-02-06T00:27:21.425Z,113.1
2023-02-06T00:29:27.637Z,101
2023-02-06T00:31:33.915Z,140.7
2023-02-06T00:33:40.062Z,110.5
2023-02-06T00:35:49.179Z,121.2
2023-02-06T00:37:55.379Z,102.7
2023-02-06T00:40:01.586Z,147.7
2023-02-06T00:42:07.799Z,116.1
2023-02-06T00:44:14.016Z,99.6
2023-02-06T00:46:20.276Z,130.6
2023-02-06T00:50:35.519Z,114.5
2023-02-06T00:52:41.745Z,129.9
2023-02-06T00:54:47.955Z,143.3
2023-02-06T00:56:54.164Z,128
2023-02-06T00:59:00.355Z,132.2
2023-02-06T01:01:06.581Z,130
2023-02-06T01:05:21.876Z,100.9
2023-02-06T01:07:28.104Z,105.6
2023-02-06T01:09:34.297Z,88.1
2023-02-06T01:11:40.499Z,130.9
2023-02-06T01:13:46.705Z,99.2
2023-02-06T01:15:52.973Z,96.4
2023-02-06T01:17:59.125Z,93.4
2023-02-06T01:20:08.257Z,109.8
2023-02-06T01:24:20.686Z,107.2
2023-02-06T01:26:46.666Z,138.9
2023-02-06T01:28:52.850Z,122.5
2023-02-06T01:30:59.169Z,143.3
2023-02-06T01:33:08.306Z,74.2
2023-02-06T01:39:26.806Z,131.9
2023-02-06T01:41:33.017Z,120.9
2023-02-06T01:43:39.248Z,126
2023-02-06T01:45:45.426Z,127.4
2023-02-06T01:47:54.520Z,82.2
2023-02-06T01:50:00.818Z,135
2023-02-06T01:52:07.009Z,116.2
2023-02-06T01:54:13.175Z,107.4
2023-02-06T01:56:19.484Z,110.5
2023-02-06T01:58:25.649Z,135.7
2023-02-06T02:00:31.851Z,99.7
2023-02-06T02:02:40.970Z,93.7
2023-02-06T02:04:47.170Z,109.3
2023-02-06T02:06:53.372Z,135.1
2023-02-06T02:08:59.609Z,125.5
2023-02-06T02:11:06.010Z,94.5
2023-02-06T02:13:12.073Z,79.5
2023-02-06T02:15:18.260Z,76.5
2023-02-06T02:17:27.373Z,104
2023-02-06T02:19:33.603Z,103.5
2023-02-06T02:21:39.826Z,118.3
2023-02-06T02:22:44.390Z,105.2
2023-02-06T02:24:50.615Z,142.3
2023-02-06T02:26:56.834Z,128
2023-02-06T02:29:03.050Z,97.6
2023-02-06T02:35:24.614Z,120
2023-02-06T02:37:30.841Z,81.6
2023-02-06T02:39:37.066Z,104.7
2023-02-06T02:43:49.505Z,92.4
2023-02-06T02:50:11.101Z,167.2
2023-02-06T02:52:17.314Z,108.7
2023-02-06T02:54:23.554Z,110.8
2023-02-06T02:56:29.787Z,82
2023-02-06T02:58:36.036Z,129.5
2023-02-06T03:00:45.160Z,127.7
2023-02-06T03:02:51.385Z,114.5
2023-02-06T03:04:57.635Z,91
2023-02-06T03:07:03.872Z,68.2
2023-02-06T03:09:10.090Z,123.5
2023-02-06T03:11:16.326Z,94.8
2023-02-06T03:13:22.538Z,86
2023-02-06T03:17:37.901Z,98
2023-02-06T03:20:48.756Z,99.2
2023-02-06T03:22:54.974Z,111
2023-02-06T03:27:07.436Z,104.3
2023-02-06T03:29:16.591Z,86
2023-02-06T03:31:22.851Z,75.6
2023-02-06T03:35:35.661Z,105.8
2023-02-06T03:39:47.726Z,72.9
2023-02-06T03:44:03.104Z,90.2
2023-02-06T03:46:09.323Z,137.5
2023-02-06T03:48:15.553Z,72.1
2023-02-06T03:50:21.742Z,74.7
2023-02-06T03:52:27.965Z,86.7
2023-02-06T03:54:34.189Z,98.3
2023-02-06T03:58:49.601Z,70
2023-02-06T04:05:08.152Z,95.1
2023-02-06T04:07:14.377Z,122.3
2023-02-06T04:09:20.570Z,80.7
2023-02-06T04:13:35.897Z,104.8
2023-02-06T04:15:42.135Z,116.9
2023-02-06T04:17:59.567Z,101.3
2023-02-06T04:20:59.160Z,123.4
2023-02-06T04:23:05.328Z,129.9
2023-02-06T04:25:11.555Z,113.9
2023-02-06T04:27:20.708Z,76.5
2023-02-06T04:31:33.097Z,74.3
2023-02-06T04:33:39.273Z,91.7
2023-02-06T04:35:45.464Z,102.3
2023-02-06T04:37:51.726Z,88.3
2023-02-06T04:39:57.909Z,121.4
2023-02-06T04:42:07.058Z,81.3
2023-02-06T04:48:25.721Z,103.2
2023-02-06T04:56:53.502Z,50.3
2023-02-06T05:01:05.947Z,66.8
2023-02-06T05:05:18.411Z,89.1
2023-02-06T05:09:30.844Z,80.9
2023-02-06T05:11:39.969Z,91.2
2023-02-06T05:13:46.172Z,119.9
2023-02-06T05:22:30.884Z,90.6
2023-02-06T05:24:39.993Z,115.6
2023-02-06T05:26:46.199Z,74
2023-02-06T05:28:52.431Z,105.7
2023-02-06T05:30:58.666Z,92.5
2023-02-06T05:33:04.878Z,90.5
2023-02-06T05:35:11.060Z,78.8
2023-02-06T05:41:32.600Z,120
2023-02-06T05:43:38.790Z,97.9
2023-02-06T05:45:45.005Z,102.7
2023-02-06T05:47:51.224Z,91.9
2023-02-06T05:49:57.405Z,106.4
2023-02-06T05:52:03.629Z,73.4
2023-02-06T05:56:18.948Z,114.1
2023-02-06T05:58:25.148Z,107.9
2023-02-06T06:00:31.350Z,62.6
2023-02-06T06:02:37.571Z,181.6
2023-02-06T06:08:59.112Z,127.7
2023-02-06T06:18:28.532Z,168.5
2023-02-06T06:29:04.049Z,176.3
2023-02-06T06:31:10.315Z,156.3
2023-02-06T06:33:16.413Z,129.9
2023-02-06T06:35:22.663Z,140.1
2023-02-06T06:37:31.752Z,131.6
2023-02-06T06:39:37.955Z,121.7
2023-02-06T06:43:51.507Z,133
2023-02-06T06:45:56.657Z,135.3
2023-02-06T06:48:02.858Z,136.5
2023-02-06T06:50:09.025Z,151.1
2023-02-06T06:52:25.026Z,127.1
2023-02-06T06:54:24.368Z,125.7
2023-02-06T06:56:30.576Z,175.8
2023-02-06T07:00:43.069Z,146.4
2023-02-06T07:02:49.314Z,127.2
2023-02-06T07:04:55.423Z,114
2023-02-06T07:07:04.631Z,112.5
2023-02-06T07:09:10.783Z,111.6
2023-02-06T07:11:17.015Z,109
2023-02-06T07:12:21.563Z,111.8
2023-02-06T07:14:27.793Z,76.2
2023-02-06T07:16:34.079Z,118.1
2023-02-06T07:18:40.241Z,118.1
2023-02-06T07:20:49.360Z,115.9
2023-02-06T07:22:55.627Z,98.8
2023-02-06T07:27:08.031Z,96
2023-02-06T07:37:42.049Z,70.6
2023-02-06T07:41:54.522Z,85.7
2023-02-06T07:44:00.736Z,61.1
2023-02-06T07:46:07.194Z,90.7
2023-02-06T07:50:22.350Z,95.3
2023-02-06T07:52:28.556Z,107.1
2023-02-06T07:54:34.804Z,95.5
2023-02-06T07:56:41.036Z,101.8
2023-02-06T07:58:47.261Z,85.2
2023-02-06T08:05:08.881Z,131.6
2023-02-06T08:09:21.346Z,44.7
2023-02-06T08:10:25.976Z,98.4
2023-02-06T08:12:32.212Z,80.5
2023-02-06T08:14:38.487Z,67
2023-02-06T08:18:53.578Z,79
2023-02-06T08:20:59.785Z,88.9
2023-02-06T08:33:40.179Z,62.9
2023-02-06T08:35:46.324Z,93.4
2023-02-06T08:37:52.564Z,91.6
2023-02-06T08:39:58.859Z,109.1
2023-02-06T08:42:05.103Z,79.2
2023-02-06T08:44:11.233Z,60.5
2023-02-06T08:46:17.594Z,73.8
2023-02-06T08:48:26.558Z,82
2023-02-06T08:52:38.869Z,71.8
2023-02-06T08:58:57.651Z,52.7
2023-02-06T09:01:03.911Z,57.7
2023-02-06T09:05:19.138Z,69.5
2023-02-06T09:09:51.113Z,67.3
2023-02-06T09:11:57.355Z,106.1
2023-02-06T09:14:03.539Z,62.8
2023-02-06T09:16:12.662Z,93.4
2023-02-06T09:18:18.718Z,102.2
2023-02-06T09:20:24.882Z,83.1
2023-02-06T09:24:37.251Z,51.3
2023-02-06T09:26:58.403Z,57.2
2023-02-06T09:28:49.629Z,59.6
2023-02-06T09:30:58.747Z,45.4
2023-02-06T09:35:11.012Z,54.7
2023-02-06T09:37:17.196Z,68.3
2023-02-06T09:41:29.572Z,63.1
2023-02-06T09:43:35.772Z,40
2023-02-06T09:45:44.768Z,49.8
2023-02-06T09:47:50.940Z,39.4
2023-02-06T09:49:57.168Z,67.4
2023-02-06T09:52:03.360Z,55.6
2023-02-06T09:54:09.536Z,68
2023-02-06T10:00:30.970Z,59.6
2023-02-06T10:02:37.162Z,62.6
2023-02-06T10:05:47.860Z,61.9
2023-02-06T10:07:54.102Z,56.2
2023-02-06T10:10:00.306Z,57.9
2023-02-06T10:12:06.507Z,35.3
2023-02-06T10:16:21.767Z,52.2
2023-02-06T10:18:27.960Z,32.2
2023-02-06T10:20:34.176Z,56.2
2023-02-06T10:22:40.427Z,66.3
2023-02-06T10:24:46.607Z,37
2023-02-06T10:26:52.838Z,54.7
2023-02-06T10:29:01.868Z,41.2
2023-02-06T10:31:08.209Z,46.6
2023-02-06T10:33:24.806Z,34.2
2023-02-06T10:35:20.582Z,40.9
2023-02-06T10:37:26.818Z,31.6
2023-02-06T10:39:33.035Z,32.5
2023-02-06T10:41:39.351Z,31.7
2023-02-06T10:43:48.333Z,41.6
2023-02-06T10:45:54.543Z,34.6
2023-02-06T10:48:00.782Z,57.3
2023-02-06T10:50:07.029Z,37.2
2023-02-06T10:52:13.272Z,35
2023-02-06T10:54:19.522Z,35.8
2023-02-06T10:56:25.761Z,39.8
2023-02-06T11:00:41.080Z,61.7
2023-02-06T11:02:52.817Z,43.4
2023-02-06T11:10:10.563Z,42.2
2023-02-06T11:12:19.609Z,38.6
2023-02-06T11:14:25.848Z,41.5
2023-02-06T11:16:32.143Z,33.1
2023-02-06T11:18:38.365Z,30
2023-02-06T11:20:44.597Z,29.6
2023-02-06T11:22:52.953Z,50.5
2023-02-06T11:24:57.098Z,34.1
2023-02-06T11:27:06.132Z,48.2
2023-02-06T11:29:12.419Z,30.9
2023-02-06T11:31:18.722Z,17.1
2023-02-06T11:33:24.904Z,21.9
2023-02-06T11:35:31.156Z,33.9
2023-02-06T11:37:37.404Z,38.9
2023-02-06T11:39:43.679Z,33.3
2023-02-06T11:41:52.693Z,40.6
2023-02-06T11:43:58.964Z,35.7
2023-02-06T11:46:05.266Z,30.9
2023-02-06T11:48:11.506Z,35.2
2023-02-06T11:50:17.745Z,54.3
2023-02-06T11:56:39.325Z,40
2023-02-06T12:00:51.838Z,18.1
2023-02-06T12:01:56.383Z,28.3
2023-02-06T12:06:08.894Z,24.1
2023-02-06T12:12:30.515Z,28.3
2023-02-06T12:14:36.744Z,31
2023-02-06T12:16:43.180Z,24.8
2023-02-06T12:18:49.273Z,21.9
2023-02-06T12:20:55.564Z,26.1
2023-02-06T12:23:01.814Z,30.9
2023-02-06T12:25:10.884Z,18.5
2023-02-06T12:27:17.151Z,20
2023-02-06T12:29:23.418Z,19.5
2023-02-06T12:31:29.776Z,23
2023-02-06T12:33:37.497Z,33.9
2023-02-06T12:35:43.752Z,15.2
2023-02-06T12:37:50.022Z,33.1
2023-02-06T12:39:59.076Z,27.7
2023-02-06T12:42:05.362Z,32.4
2023-02-06T12:44:11.618Z,28.9
2023-02-06T12:46:17.924Z,19.2
2023-02-06T12:48:24.167Z,36.9
2023-02-06T12:50:30.620Z,20
2023-02-06T12:52:36.723Z,27.7
2023-02-06T12:54:45.772Z,17.6
2023-02-06T12:56:52.064Z,19
2023-02-06T13:03:30.661Z,47.5
2023-02-06T13:07:49.737Z,27.1
2023-02-06T13:14:04.899Z,22.4
2023-02-06T13:16:11.329Z,32.6
2023-02-06T13:24:39.066Z,27.7
2023-02-06T13:26:45.328Z,35.9
2023-02-06T13:35:10.425Z,21.3
2023-02-06T13:37:19.484Z,41.2
2023-02-06T13:47:50.814Z,45
2023-02-06T13:52:06.141Z,43.4
2023-02-06T13:56:18.645Z,37.7
2023-02-06T13:57:23.184Z,22
2023-02-06T13:59:29.428Z,28.1
2023-02-06T14:01:35.708Z,36.4
2023-02-06T14:03:41.952Z,52.2
2023-02-06T14:05:50.998Z,29.1
2023-02-06T14:07:57.279Z,35.2
2023-02-06T14:10:03.534Z,38
2023-02-06T14:12:09.781Z,28.9
2023-02-06T14:14:16.011Z,26.1
2023-02-06T14:16:22.368Z,14.9
2023-02-06T14:22:43.846Z,35.1
2023-02-06T14:24:50.104Z,12.3
2023-02-06T14:26:56.382Z,45.3
2023-02-06T14:29:02.634Z,13.4
2023-02-06T14:31:09.446Z,24.7
2023-02-06T14:33:15.151Z,28.2
2023-02-06T14:35:24.191Z,25.7
2023-02-06T14:37:30.462Z,42.4
2023-02-06T14:39:36.739Z,33.2
2023-02-06T14:41:42.964Z,16.6
2023-02-06T14:43:49.237Z,23.6
2023-02-06T14:46:06.019Z,36.3
2023-02-06T14:48:01.752Z,41.6
2023-02-06T14:50:10.837Z,41.2
2023-02-06T14:54:23.328Z,18.8
2023-02-06T14:59:40.363Z,42.9
2023-02-06T15:03:55.739Z,23.4
2023-02-06T15:06:01.953Z,9.4
2023-02-06T15:08:08.200Z,31.8
2023-02-06T15:10:14.456Z,37.2
2023-02-06T15:12:20.687Z,24.5
2023-02-06T15:14:26.982Z,40.2
2023-02-06T15:18:42.285Z,21.8
2023-02-06T15:22:58.130Z,27.5
2023-02-06T15:25:01.065Z,17.7
2023-02-06T15:27:07.311Z,29.3
2023-02-06T15:29:13.583Z,27.7
2023-02-06T15:31:19.961Z,68.6
2023-02-06T15:33:28.898Z,39.1
2023-02-06T15:37:41.412Z,26.5
2023-02-06T15:39:47.638Z,29.5
2023-02-06T15:41:53.884Z,17.5
2023-02-06T15:44:00.124Z,16.4
2023-02-06T15:46:06.452Z,24.1
2023-02-06T15:50:21.652Z,31.2
2023-02-06T15:52:27.885Z,16.7
2023-02-06T15:55:38.675Z,31.8
2023-02-06T15:59:51.137Z,29.4
2023-02-06T16:02:00.181Z,34.3
2023-02-06T16:06:12.622Z,47.1
2023-02-06T16:08:18.836Z,40.5
2023-02-06T16:10:25.060Z,32.5
2023-02-06T16:12:31.288Z,25.1
2023-02-06T16:14:37.503Z,32.7
2023-02-06T16:18:52.795Z,28.8
2023-02-06T16:27:17.605Z,30.8
2023-02-06T16:31:32.983Z,21.4
2023-02-06T16:33:39.010Z,48.5
2023-02-06T16:35:45.236Z,30.6
2023-02-06T16:37:51.441Z,43.3
2023-02-06T16:39:57.591Z,31.7
2023-02-06T16:46:19.075Z,52.7
2023-02-06T16:48:25.198Z,38.7
2023-02-06T16:50:31.363Z,42.8
2023-02-06T16:52:57.078Z,37.6
2023-02-06T16:55:03.278Z,50.6
2023-02-06T16:57:09.441Z,45.6
2023-02-06T16:59:18.631Z,36.9
2023-02-06T17:01:24.898Z,39.3
2023-02-06T17:03:31.085Z,19.3
2023-02-06T17:05:37.272Z,49.1
2023-02-06T17:07:43.525Z,32.8
2023-02-06T17:09:49.718Z,67.1
2023-02-06T17:11:55.852Z,45.3
2023-02-06T17:14:04.834Z,40.8
2023-02-06T17:20:23.550Z,44.6
2023-02-06T17:22:29.778Z,53.2
2023-02-06T17:24:36.051Z,59.7
2023-02-06T17:26:42.313Z,49.9
2023-02-06T17:28:51.468Z,48.2
2023-02-06T17:30:59.930Z,59.4
2023-02-06T17:33:04.038Z,53.4
2023-02-06T17:35:10.271Z,79.1
2023-02-06T17:39:22.783Z,38.1
2023-02-06T17:41:29.045Z,45.9
2023-02-06T17:43:38.155Z,50.9
2023-02-06T17:47:50.696Z,51.2
2023-02-06T17:48:55.251Z,53.8
2023-02-06T17:51:01.535Z,72.5
2023-02-06T17:55:13.964Z,48
2023-02-06T17:59:29.339Z,53.4
2023-02-06T18:03:41.801Z,38
2023-02-06T18:05:47.998Z,74.8
2023-02-06T18:10:00.486Z,74.1
2023-02-06T18:12:09.632Z,49.6
2023-02-06T18:14:15.888Z,38.5
2023-02-06T18:16:22.146Z,55.8
2023-02-06T18:18:28.360Z,57
2023-02-06T18:20:34.669Z,65.5
2023-02-06T18:22:40.773Z,71.4
2023-02-06T18:24:47.019Z,69.3
2023-02-06T18:33:14.824Z,89.3
2023-02-06T18:35:21.020Z,84.2
2023-02-06T18:37:28.818Z,78.8
2023-02-06T18:39:35.009Z,104.8
2023-02-06T18:41:44.129Z,101.8
2023-02-06T18:47:01.113Z,89.2
2023-02-06T18:51:13.534Z,123.6
2023-02-06T18:55:28.904Z,127.7
2023-02-06T18:57:35.075Z,141.8
2023-02-06T18:59:41.292Z,172
2023-02-06T19:03:53.729Z,177.6
2023-02-06T19:08:06.141Z,156.5
2023-02-06T19:10:15.234Z,147.3
2023-02-06T19:12:21.511Z,177.7
2023-02-06T19:14:27.647Z,119.2
2023-02-06T19:20:46.253Z,150.6
2023-02-06T19:25:01.595Z,182.8
2023-02-06T19:27:07.711Z,155.6
2023-02-06T19:29:13.911Z,129.8
2023-02-06T19:31:20.149Z,159.1
2023-02-06T19:33:26.269Z,147.5
2023-02-06T19:39:47.708Z,176
2023-02-06T19:41:53.856Z,189.2
2023-02-06T19:45:04.565Z,189.3
2023-02-06T19:47:10.777Z,190.9
2023-02-06T19:49:16.925Z,179.4
2023-02-06T19:51:23.106Z,214.8
2023-02-06T19:57:44.532Z,180.1
2023-02-06T19:59:50.744Z,211
2023-02-06T20:01:56.901Z,164.6
2023-02-06T20:04:03.073Z,176.4
2023-02-06T20:12:30.687Z,166.5
2023-02-06T20:20:55.242Z,173.6
2023-02-06T20:23:04.285Z,178.2
2023-02-06T20:25:10.440Z,157.6
2023-02-06T20:33:35.060Z,207.8
2023-02-06T20:35:41.177Z,195.9
2023-02-06T20:37:50.252Z,212.2
2023-02-06T20:39:56.380Z,221
2023-02-06T20:42:02.533Z,188.9
2023-02-06T20:44:28.741Z,206.7
2023-02-06T20:48:40.745Z,223.8
2023-02-06T20:50:49.773Z,212.8
2023-02-06T20:55:02.086Z,244.2
2023-02-06T20:57:08.228Z,231.9
2023-02-06T20:59:14.374Z,201.3
2023-02-06T21:01:20.567Z,244.5
2023-02-06T21:03:26.810Z,209.2
2023-02-06T21:05:35.710Z,210.6
2023-02-06T21:07:41.823Z,200.8
2023-02-06T21:11:54.114Z,215.9
2023-02-06T21:14:00.617Z,182.6
2023-02-06T21:16:06.430Z,200.3
2023-02-06T21:18:12.523Z,190.2
2023-02-06T21:20:21.572Z,226.2
2023-02-06T21:22:27.728Z,221.1
2023-02-06T21:24:33.820Z,195.1
2023-02-06T21:26:39.961Z,230.5
2023-02-06T21:28:46.100Z,210.1
2023-02-06T21:30:52.294Z,228.5
2023-02-06T21:32:58.356Z,219.8
2023-02-06T21:35:07.359Z,233.4
2023-02-06T21:37:13.492Z,260.5
2023-02-06T21:39:19.630Z,206.9
2023-02-06T21:40:24.148Z,203
2023-02-06T21:42:30.262Z,230.2
2023-02-06T21:44:36.367Z,244
2023-02-06T21:46:42.499Z,185.1
2023-02-06T21:50:57.651Z,235.7
2023-02-06T21:53:03.743Z,174.3
2023-02-06T21:55:09.884Z,205.1
2023-02-06T21:57:15.997Z,198.3
2023-02-06T21:59:22.081Z,213.4
2023-02-06T22:01:28.328Z,203.3
2023-02-06T22:03:37.236Z,229
2023-02-06T22:05:43.358Z,190.8
2023-02-06T22:07:49.471Z,199.3
2023-02-06T22:09:55.564Z,169.7
2023-02-06T22:12:01.927Z,240.7
2023-02-06T22:14:07.817Z,208.1
2023-02-06T22:16:13.922Z,222.8
2023-02-06T22:18:22.907Z,171.9
2023-02-06T22:20:29.018Z,225.3
2023-02-06T22:22:35.127Z,215.5
2023-02-06T22:28:53.451Z,216.1
2023-02-06T22:33:08.548Z,231.1
2023-02-06T22:35:14.673Z,231.7
2023-02-06T22:37:20.761Z,242.8
2023-02-06T22:38:25.264Z,249.3
2023-02-06T22:40:31.494Z,243.9
2023-02-06T22:42:37.517Z,251.2
2023-02-06T22:44:43.593Z,252.9
2023-02-06T22:46:52.607Z,250.6
2023-02-06T22:51:04.805Z,230
2023-02-06T22:59:29.221Z,226.1
2023-02-06T23:03:44.359Z,192.5
2023-02-06T23:07:56.539Z,207.5
2023-02-06T23:10:02.657Z,220.6
2023-02-06T23:14:14.855Z,209.8
2023-02-06T23:16:23.877Z,207.3
2023-02-06T23:18:30.110Z,217.2
2023-02-06T23:20:36.057Z,212.8
2023-02-06T23:22:42.147Z,208
2023-02-06T23:24:48.242Z,203.5
2023-02-06T23:26:54.396Z,200.1
2023-02-06T23:29:00.455Z,183.3
2023-02-06T23:31:09.476Z,176.1
2023-02-06T23:33:15.573Z,176.8
2023-02-06T23:35:21.662Z,167
2023-02-06T23:36:26.147Z,183.7
2023-02-06T23:42:44.468Z,159.5
2023-02-06T23:44:53.487Z,163.7
2023-02-06T23:46:59.557Z,149.7
2023-02-06T23:49:05.781Z,135.3
2023-02-06T23:55:23.949Z,150.8
2023-02-06T23:57:30.042Z,138.6
2023-02-06T23:59:39.066Z,139.2
